sensor_id;sensor_type;location;lat;lon;timestamp;P1;durP1;ratioP1;P2;durP2;ratioP2
11121;SDS011;5615;49.304;10.576;2023-03-01T00:02:14;25.97;;;17.50;;
11121;SDS011;5615;49.304;10.576;2023-03-01T00:04:41;29.03;;;16.90;;
11121;SDS011;5615;49.304;10.576;2023-03-01T00:07:08;33.67;;;18.10;;
11121;SDS011;5615;49.304;10.576;2023-03-01T00:09:35;29.80;;;17.60;;
11121;SDS011;5615;49.304;10.576;2023-03-01T00:12:02;27.37;;;17.47;;
11121;SDS011;5615;49.304;10.576;2023-03-01T00:14:31;27.57;;;18.30;;
11121;SDS011;5615;49.304;10.576;2023-03-01T00:16:58;30.70;;;18.60;;
11121;SDS011;5615;49.304;10.576;2023-03-01T00:19:25;30.90;;;17.67;;
11121;SDS011;5615;49.304;10.576;2023-03-01T00:21:51;26.57;;;16.80;;
11121;SDS011;5615;49.304;10.576;2023-03-01T00:24:18;27.40;;;17.23;;
11121;SDS011;5615;49.304;10.576;2023-03-01T00:26:44;29.17;;;17.30;;
11121;SDS011;5615;49.304;10.576;2023-03-01T00:29:11;26.97;;;17.33;;
11121;SDS011;5615;49.304;10.576;2023-03-01T00:31:39;24.67;;;15.83;;
11121;SDS011;5615;49.304;10.576;2023-03-01T00:34:06;28.60;;;17.37;;
11121;SDS011;5615;49.304;10.576;2023-03-01T00:36:33;28.00;;;16.60;;
11121;SDS011;5615;49.304;10.576;2023-03-01T00:39:02;26.87;;;16.77;;
11121;SDS011;5615;49.304;10.576;2023-03-01T00:41:29;25.33;;;16.80;;
11121;SDS011;5615;49.304;10.576;2023-03-01T00:43:55;28.47;;;16.50;;
11121;SDS011;5615;49.304;10.576;2023-03-01T00:46:23;30.27;;;17.30;;
11121;SDS011;5615;49.304;10.576;2023-03-01T00:48:52;27.13;;;17.50;;
11121;SDS011;5615;49.304;10.576;2023-03-01T00:51:20;27.00;;;16.97;;
11121;SDS011;5615;49.304;10.576;2023-03-01T00:53:51;28.60;;;18.13;;
11121;SDS011;5615;49.304;10.576;2023-03-01T00:56:18;29.00;;;16.67;;
11121;SDS011;5615;49.304;10.576;2023-03-01T00:58:45;26.27;;;16.80;;
11121;SDS011;5615;49.304;10.576;2023-03-01T01:01:13;25.43;;;16.93;;
11121;SDS011;5615;49.304;10.576;2023-03-01T01:03:43;28.93;;;17.40;;
11121;SDS011;5615;49.304;10.576;2023-03-01T01:06:16;27.87;;;17.47;;
11121;SDS011;5615;49.304;10.576;2023-03-01T01:08:44;27.43;;;16.97;;
11121;SDS011;5615;49.304;10.576;2023-03-01T01:11:11;29.87;;;18.07;;
11121;SDS011;5615;49.304;10.576;2023-03-01T01:13:39;28.30;;;17.43;;
11121;SDS011;5615;49.304;10.576;2023-03-01T01:16:06;27.50;;;16.97;;
11121;SDS011;5615;49.304;10.576;2023-03-01T01:18:33;26.80;;;16.90;;
11121;SDS011;5615;49.304;10.576;2023-03-01T01:21:03;25.97;;;16.53;;
11121;SDS011;5615;49.304;10.576;2023-03-01T01:23:32;27.20;;;17.10;;
11121;SDS011;5615;49.304;10.576;2023-03-01T01:26:03;31.33;;;16.67;;
11121;SDS011;5615;49.304;10.576;2023-03-01T01:28:30;29.00;;;17.77;;
11121;SDS011;5615;49.304;10.576;2023-03-01T01:30:57;29.13;;;17.23;;
11121;SDS011;5615;49.304;10.576;2023-03-01T01:33:23;29.27;;;18.00;;
11121;SDS011;5615;49.304;10.576;2023-03-01T01:35:50;29.40;;;16.60;;
11121;SDS011;5615;49.304;10.576;2023-03-01T01:38:17;27.70;;;17.70;;
11121;SDS011;5615;49.304;10.576;2023-03-01T01:40:45;29.13;;;17.37;;
11121;SDS011;5615;49.304;10.576;2023-03-01T01:43:15;27.73;;;17.47;;
11121;SDS011;5615;49.304;10.576;2023-03-01T01:45:45;32.30;;;18.50;;
11121;SDS011;5615;49.304;10.576;2023-03-01T01:48:12;29.50;;;17.87;;
11121;SDS011;5615;49.304;10.576;2023-03-01T01:50:41;28.23;;;18.00;;
11121;SDS011;5615;49.304;10.576;2023-03-01T01:53:10;33.07;;;17.97;;
11121;SDS011;5615;49.304;10.576;2023-03-01T01:55:41;28.77;;;17.90;;
11121;SDS011;5615;49.304;10.576;2023-03-01T01:58:12;31.77;;;17.40;;
11121;SDS011;5615;49.304;10.576;2023-03-01T02:00:43;28.67;;;17.63;;
11121;SDS011;5615;49.304;10.576;2023-03-01T02:03:10;32.93;;;18.93;;
11121;SDS011;5615;49.304;10.576;2023-03-01T02:05:43;29.50;;;17.73;;
11121;SDS011;5615;49.304;10.576;2023-03-01T02:08:14;29.83;;;17.23;;
11121;SDS011;5615;49.304;10.576;2023-03-01T02:10:43;31.83;;;18.23;;
11121;SDS011;5615;49.304;10.576;2023-03-01T02:13:13;28.10;;;17.13;;
11121;SDS011;5615;49.304;10.576;2023-03-01T02:15:40;29.80;;;17.63;;
11121;SDS011;5615;49.304;10.576;2023-03-01T02:18:08;30.90;;;18.00;;
11121;SDS011;5615;49.304;10.576;2023-03-01T02:20:39;32.80;;;18.43;;
11121;SDS011;5615;49.304;10.576;2023-03-01T02:23:11;32.30;;;17.83;;
11121;SDS011;5615;49.304;10.576;2023-03-01T02:25:41;31.10;;;18.30;;
11121;SDS011;5615;49.304;10.576;2023-03-01T02:28:21;29.57;;;17.80;;
11121;SDS011;5615;49.304;10.576;2023-03-01T02:30:50;34.13;;;19.57;;
11121;SDS011;5615;49.304;10.576;2023-03-01T02:33:35;29.70;;;17.50;;
11121;SDS011;5615;49.304;10.576;2023-03-01T02:36:03;31.30;;;18.53;;
11121;SDS011;5615;49.304;10.576;2023-03-01T02:38:33;32.97;;;18.87;;
11121;SDS011;5615;49.304;10.576;2023-03-01T02:41:00;30.87;;;17.13;;
11121;SDS011;5615;49.304;10.576;2023-03-01T02:43:31;32.83;;;18.67;;
11121;SDS011;5615;49.304;10.576;2023-03-01T02:46:04;35.33;;;20.10;;
11121;SDS011;5615;49.304;10.576;2023-03-01T02:48:40;29.40;;;17.60;;
11121;SDS011;5615;49.304;10.576;2023-03-01T02:51:10;30.67;;;17.87;;
11121;SDS011;5615;49.304;10.576;2023-03-01T02:53:48;30.43;;;17.33;;
11121;SDS011;5615;49.304;10.576;2023-03-01T02:56:23;32.90;;;18.90;;
11121;SDS011;5615;49.304;10.576;2023-03-01T02:58:51;32.97;;;18.07;;
11121;SDS011;5615;49.304;10.576;2023-03-01T03:01:18;33.70;;;19.07;;
11121;SDS011;5615;49.304;10.576;2023-03-01T03:03:45;33.27;;;19.53;;
11121;SDS011;5615;49.304;10.576;2023-03-01T03:06:12;32.00;;;19.23;;
11121;SDS011;5615;49.304;10.576;2023-03-01T03:08:39;35.83;;;19.23;;
11121;SDS011;5615;49.304;10.576;2023-03-01T03:11:05;33.07;;;18.37;;
11121;SDS011;5615;49.304;10.576;2023-03-01T03:13:32;33.83;;;18.97;;
11121;SDS011;5615;49.304;10.576;2023-03-01T03:16:01;32.50;;;19.13;;
11121;SDS011;5615;49.304;10.576;2023-03-01T03:18:29;38.17;;;20.57;;
11121;SDS011;5615;49.304;10.576;2023-03-01T03:20:56;33.17;;;18.43;;
11121;SDS011;5615;49.304;10.576;2023-03-01T03:23:22;31.70;;;18.23;;
11121;SDS011;5615;49.304;10.576;2023-03-01T03:25:49;32.80;;;19.50;;
11121;SDS011;5615;49.304;10.576;2023-03-01T03:28:17;32.27;;;18.63;;
11121;SDS011;5615;49.304;10.576;2023-03-01T03:30:44;34.13;;;19.40;;
11121;SDS011;5615;49.304;10.576;2023-03-01T03:33:13;34.93;;;18.67;;
11121;SDS011;5615;49.304;10.576;2023-03-01T03:35:41;34.03;;;19.03;;
11121;SDS011;5615;49.304;10.576;2023-03-01T03:38:09;37.17;;;20.13;;
11121;SDS011;5615;49.304;10.576;2023-03-01T03:40:42;33.27;;;19.27;;
11121;SDS011;5615;49.304;10.576;2023-03-01T03:43:10;39.90;;;20.00;;
11121;SDS011;5615;49.304;10.576;2023-03-01T03:45:39;34.67;;;19.70;;
11121;SDS011;5615;49.304;10.576;2023-03-01T03:48:06;34.77;;;19.40;;
11121;SDS011;5615;49.304;10.576;2023-03-01T03:50:36;36.47;;;20.20;;
11121;SDS011;5615;49.304;10.576;2023-03-01T03:53:05;34.83;;;20.17;;
11121;SDS011;5615;49.304;10.576;2023-03-01T03:55:33;35.53;;;19.40;;
11121;SDS011;5615;49.304;10.576;2023-03-01T03:58:00;36.73;;;19.03;;
11121;SDS011;5615;49.304;10.576;2023-03-01T04:00:31;35.20;;;20.33;;
11121;SDS011;5615;49.304;10.576;2023-03-01T04:02:59;31.97;;;18.90;;
11121;SDS011;5615;49.304;10.576;2023-03-01T04:05:26;35.73;;;20.47;;
11121;SDS011;5615;49.304;10.576;2023-03-01T04:07:54;33.13;;;19.80;;
11121;SDS011;5615;49.304;10.576;2023-03-01T04:10:27;37.53;;;20.07;;
11121;SDS011;5615;49.304;10.576;2023-03-01T04:12:54;38.93;;;20.23;;
11121;SDS011;5615;49.304;10.576;2023-03-01T04:15:22;37.87;;;20.27;;
11121;SDS011;5615;49.304;10.576;2023-03-01T04:17:50;33.07;;;20.13;;
11121;SDS011;5615;49.304;10.576;2023-03-01T04:20:19;36.00;;;20.23;;
11121;SDS011;5615;49.304;10.576;2023-03-01T04:22:50;37.30;;;21.40;;
11121;SDS011;5615;49.304;10.576;2023-03-01T04:25:19;36.17;;;19.43;;
11121;SDS011;5615;49.304;10.576;2023-03-01T04:27:46;39.30;;;20.73;;
11121;SDS011;5615;49.304;10.576;2023-03-01T04:30:13;35.30;;;20.00;;
11121;SDS011;5615;49.304;10.576;2023-03-01T04:32:40;36.93;;;20.30;;
11121;SDS011;5615;49.304;10.576;2023-03-01T04:35:07;38.63;;;21.30;;
11121;SDS011;5615;49.304;10.576;2023-03-01T04:37:34;33.77;;;19.80;;
11121;SDS011;5615;49.304;10.576;2023-03-01T04:40:01;38.00;;;20.87;;
11121;SDS011;5615;49.304;10.576;2023-03-01T04:42:38;36.90;;;19.87;;
11121;SDS011;5615;49.304;10.576;2023-03-01T04:45:05;36.90;;;21.43;;
11121;SDS011;5615;49.304;10.576;2023-03-01T04:47:37;38.83;;;20.60;;
11121;SDS011;5615;49.304;10.576;2023-03-01T04:50:05;35.23;;;20.33;;
11121;SDS011;5615;49.304;10.576;2023-03-01T04:52:33;39.27;;;21.00;;
11121;SDS011;5615;49.304;10.576;2023-03-01T04:54:59;40.70;;;20.27;;
11121;SDS011;5615;49.304;10.576;2023-03-01T04:57:26;33.73;;;19.77;;
11121;SDS011;5615;49.304;10.576;2023-03-01T04:59:54;36.97;;;21.03;;
11121;SDS011;5615;49.304;10.576;2023-03-01T05:02:21;36.33;;;20.57;;
11121;SDS011;5615;49.304;10.576;2023-03-01T05:04:48;41.40;;;20.90;;
11121;SDS011;5615;49.304;10.576;2023-03-01T05:07:15;37.17;;;20.60;;
11121;SDS011;5615;49.304;10.576;2023-03-01T05:09:44;35.20;;;20.43;;
11121;SDS011;5615;49.304;10.576;2023-03-01T05:12:11;32.90;;;18.93;;
11121;SDS011;5615;49.304;10.576;2023-03-01T05:14:38;36.50;;;19.73;;
11121;SDS011;5615;49.304;10.576;2023-03-01T05:17:06;39.03;;;20.43;;
11121;SDS011;5615;49.304;10.576;2023-03-01T05:19:33;38.50;;;20.47;;
11121;SDS011;5615;49.304;10.576;2023-03-01T05:22:00;38.00;;;21.50;;
11121;SDS011;5615;49.304;10.576;2023-03-01T05:24:30;41.00;;;21.60;;
11121;SDS011;5615;49.304;10.576;2023-03-01T05:26:58;37.73;;;20.17;;
11121;SDS011;5615;49.304;10.576;2023-03-01T05:29:26;36.17;;;20.60;;
11121;SDS011;5615;49.304;10.576;2023-03-01T05:31:53;39.97;;;20.80;;
11121;SDS011;5615;49.304;10.576;2023-03-01T05:34:24;37.07;;;18.90;;
11121;SDS011;5615;49.304;10.576;2023-03-01T05:36:51;37.57;;;20.10;;
11121;SDS011;5615;49.304;10.576;2023-03-01T05:39:19;42.67;;;20.87;;
11121;SDS011;5615;49.304;10.576;2023-03-01T05:41:47;35.33;;;19.60;;
11121;SDS011;5615;49.304;10.576;2023-03-01T05:44:14;37.10;;;20.73;;
11121;SDS011;5615;49.304;10.576;2023-03-01T05:46:40;33.93;;;20.37;;
11121;SDS011;5615;49.304;10.576;2023-03-01T05:49:07;38.07;;;20.23;;
11121;SDS011;5615;49.304;10.576;2023-03-01T05:51:35;37.47;;;20.23;;
11121;SDS011;5615;49.304;10.576;2023-03-01T05:54:02;41.87;;;21.83;;
11121;SDS011;5615;49.304;10.576;2023-03-01T05:56:31;37.13;;;19.50;;
11121;SDS011;5615;49.304;10.576;2023-03-01T05:58:59;33.60;;;19.70;;
11121;SDS011;5615;49.304;10.576;2023-03-01T06:01:26;40.47;;;19.37;;
11121;SDS011;5615;49.304;10.576;2023-03-01T06:03:52;38.63;;;20.53;;
11121;SDS011;5615;49.304;10.576;2023-03-01T06:06:19;33.43;;;18.57;;
11121;SDS011;5615;49.304;10.576;2023-03-01T06:08:47;34.90;;;20.20;;
11121;SDS011;5615;49.304;10.576;2023-03-01T06:11:13;34.70;;;19.80;;
11121;SDS011;5615;49.304;10.576;2023-03-01T06:13:40;35.53;;;20.33;;
11121;SDS011;5615;49.304;10.576;2023-03-01T06:16:07;37.47;;;20.27;;
11121;SDS011;5615;49.304;10.576;2023-03-01T06:18:35;36.57;;;19.80;;
11121;SDS011;5615;49.304;10.576;2023-03-01T06:21:01;38.00;;;20.10;;
11121;SDS011;5615;49.304;10.576;2023-03-01T06:23:28;33.77;;;19.57;;
11121;SDS011;5615;49.304;10.576;2023-03-01T06:25:56;34.87;;;19.93;;
11121;SDS011;5615;49.304;10.576;2023-03-01T06:28:23;36.57;;;20.87;;
11121;SDS011;5615;49.304;10.576;2023-03-01T06:30:50;37.40;;;20.70;;
11121;SDS011;5615;49.304;10.576;2023-03-01T06:33:17;31.17;;;19.60;;
11121;SDS011;5615;49.304;10.576;2023-03-01T06:35:45;33.37;;;19.90;;
11121;SDS011;5615;49.304;10.576;2023-03-01T06:38:11;35.17;;;19.83;;
11121;SDS011;5615;49.304;10.576;2023-03-01T06:40:40;36.23;;;19.90;;
11121;SDS011;5615;49.304;10.576;2023-03-01T06:43:08;41.00;;;21.30;;
11121;SDS011;5615;49.304;10.576;2023-03-01T06:45:35;34.70;;;19.83;;
11121;SDS011;5615;49.304;10.576;2023-03-01T06:48:02;35.87;;;20.70;;
11121;SDS011;5615;49.304;10.576;2023-03-01T06:50:30;36.23;;;19.83;;
11121;SDS011;5615;49.304;10.576;2023-03-01T06:52:57;35.23;;;19.93;;
11121;SDS011;5615;49.304;10.576;2023-03-01T06:55:24;32.00;;;18.23;;
11121;SDS011;5615;49.304;10.576;2023-03-01T06:57:53;34.90;;;19.27;;
11121;SDS011;5615;49.304;10.576;2023-03-01T07:00:22;33.57;;;19.70;;
11121;SDS011;5615;49.304;10.576;2023-03-01T07:02:50;31.87;;;18.77;;
11121;SDS011;5615;49.304;10.576;2023-03-01T07:05:16;33.73;;;18.73;;
11121;SDS011;5615;49.304;10.576;2023-03-01T07:07:43;32.57;;;19.10;;
11121;SDS011;5615;49.304;10.576;2023-03-01T07:10:10;35.50;;;20.63;;
11121;SDS011;5615;49.304;10.576;2023-03-01T07:12:37;33.47;;;20.37;;
11121;SDS011;5615;49.304;10.576;2023-03-01T07:15:06;30.97;;;18.13;;
11121;SDS011;5615;49.304;10.576;2023-03-01T07:17:36;33.13;;;19.87;;
11121;SDS011;5615;49.304;10.576;2023-03-01T07:20:03;32.83;;;19.43;;
11121;SDS011;5615;49.304;10.576;2023-03-01T07:22:30;35.10;;;19.47;;
11121;SDS011;5615;49.304;10.576;2023-03-01T07:24:57;29.47;;;18.23;;
11121;SDS011;5615;49.304;10.576;2023-03-01T07:27:23;28.87;;;18.60;;
11121;SDS011;5615;49.304;10.576;2023-03-01T07:29:50;29.93;;;18.27;;
11121;SDS011;5615;49.304;10.576;2023-03-01T07:32:16;28.33;;;17.50;;
11121;SDS011;5615;49.304;10.576;2023-03-01T07:34:44;29.33;;;18.63;;
11121;SDS011;5615;49.304;10.576;2023-03-01T07:37:11;26.47;;;17.33;;
11121;SDS011;5615;49.304;10.576;2023-03-01T07:39:38;28.17;;;17.93;;
11121;SDS011;5615;49.304;10.576;2023-03-01T07:42:04;29.47;;;17.57;;
11121;SDS011;5615;49.304;10.576;2023-03-01T07:44:31;29.07;;;16.47;;
11121;SDS011;5615;49.304;10.576;2023-03-01T07:46:57;30.37;;;17.40;;
11121;SDS011;5615;49.304;10.576;2023-03-01T07:49:24;28.90;;;17.73;;
11121;SDS011;5615;49.304;10.576;2023-03-01T07:51:53;27.53;;;16.83;;
11121;SDS011;5615;49.304;10.576;2023-03-01T07:54:20;27.40;;;17.60;;
11121;SDS011;5615;49.304;10.576;2023-03-01T07:56:46;28.93;;;17.20;;
11121;SDS011;5615;49.304;10.576;2023-03-01T07:59:13;26.23;;;17.20;;
11121;SDS011;5615;49.304;10.576;2023-03-01T08:01:40;23.70;;;16.30;;
11121;SDS011;5615;49.304;10.576;2023-03-01T08:04:07;30.10;;;17.87;;
11121;SDS011;5615;49.304;10.576;2023-03-01T08:06:34;29.13;;;17.80;;
11121;SDS011;5615;49.304;10.576;2023-03-01T08:09:02;26.30;;;17.07;;
11121;SDS011;5615;49.304;10.576;2023-03-01T08:11:29;28.60;;;17.83;;
11121;SDS011;5615;49.304;10.576;2023-03-01T08:13:55;25.20;;;16.80;;
11121;SDS011;5615;49.304;10.576;2023-03-01T08:16:22;27.77;;;17.20;;
11121;SDS011;5615;49.304;10.576;2023-03-01T08:18:49;29.40;;;18.10;;
11121;SDS011;5615;49.304;10.576;2023-03-01T08:21:16;26.50;;;18.07;;
11121;SDS011;5615;49.304;10.576;2023-03-01T08:23:43;25.83;;;18.20;;
11121;SDS011;5615;49.304;10.576;2023-03-01T08:26:12;26.80;;;18.00;;
11121;SDS011;5615;49.304;10.576;2023-03-01T08:28:41;26.07;;;17.77;;
11121;SDS011;5615;49.304;10.576;2023-03-01T08:31:15;33.20;;;17.63;;
11121;SDS011;5615;49.304;10.576;2023-03-01T08:33:43;29.70;;;18.40;;
11121;SDS011;5615;49.304;10.576;2023-03-01T08:36:15;24.97;;;17.20;;
11121;SDS011;5615;49.304;10.576;2023-03-01T08:38:42;28.60;;;18.77;;
11121;SDS011;5615;49.304;10.576;2023-03-01T08:41:08;26.87;;;17.73;;
11121;SDS011;5615;49.304;10.576;2023-03-01T08:43:36;30.67;;;18.47;;
11121;SDS011;5615;49.304;10.576;2023-03-01T08:46:03;26.50;;;18.30;;
11121;SDS011;5615;49.304;10.576;2023-03-01T08:48:30;27.43;;;18.20;;
11121;SDS011;5615;49.304;10.576;2023-03-01T08:50:56;31.50;;;17.87;;
11121;SDS011;5615;49.304;10.576;2023-03-01T08:53:32;28.37;;;19.00;;
11121;SDS011;5615;49.304;10.576;2023-03-01T08:55:59;27.27;;;18.27;;
11121;SDS011;5615;49.304;10.576;2023-03-01T08:58:27;27.87;;;18.70;;
11121;SDS011;5615;49.304;10.576;2023-03-01T09:00:55;35.00;;;19.00;;
11121;SDS011;5615;49.304;10.576;2023-03-01T09:03:22;26.50;;;17.90;;
11121;SDS011;5615;49.304;10.576;2023-03-01T09:05:49;25.60;;;18.10;;
11121;SDS011;5615;49.304;10.576;2023-03-01T09:08:16;27.90;;;18.77;;
11121;SDS011;5615;49.304;10.576;2023-03-01T09:10:42;24.83;;;18.20;;
11121;SDS011;5615;49.304;10.576;2023-03-01T09:13:09;25.00;;;18.20;;
11121;SDS011;5615;49.304;10.576;2023-03-01T09:15:36;30.23;;;19.23;;
11121;SDS011;5615;49.304;10.576;2023-03-01T09:18:04;29.33;;;18.27;;
11121;SDS011;5615;49.304;10.576;2023-03-01T09:20:31;29.03;;;18.83;;
11121;SDS011;5615;49.304;10.576;2023-03-01T09:22:58;36.43;;;19.67;;
11121;SDS011;5615;49.304;10.576;2023-03-01T09:25:25;26.23;;;17.63;;
11121;SDS011;5615;49.304;10.576;2023-03-01T09:27:51;29.97;;;18.87;;
11121;SDS011;5615;49.304;10.576;2023-03-01T09:30:18;32.60;;;18.93;;
11121;SDS011;5615;49.304;10.576;2023-03-01T09:32:46;26.20;;;18.53;;
11121;SDS011;5615;49.304;10.576;2023-03-01T09:35:14;26.47;;;18.47;;
11121;SDS011;5615;49.304;10.576;2023-03-01T09:37:41;26.97;;;19.17;;
11121;SDS011;5615;49.304;10.576;2023-03-01T09:40:11;22.97;;;18.23;;
11121;SDS011;5615;49.304;10.576;2023-03-01T09:42:45;23.00;;;18.90;;
11121;SDS011;5615;49.304;10.576;2023-03-01T09:45:19;24.93;;;19.63;;
11121;SDS011;5615;49.304;10.576;2023-03-01T09:47:53;24.37;;;18.97;;
11121;SDS011;5615;49.304;10.576;2023-03-01T09:50:22;26.83;;;19.27;;
11121;SDS011;5615;49.304;10.576;2023-03-01T09:52:53;25.40;;;20.00;;
11121;SDS011;5615;49.304;10.576;2023-03-01T09:55:26;25.40;;;20.17;;
11121;SDS011;5615;49.304;10.576;2023-03-01T09:57:58;26.37;;;20.20;;
11121;SDS011;5615;49.304;10.576;2023-03-01T10:00:31;25.20;;;19.47;;
11121;SDS011;5615;49.304;10.576;2023-03-01T10:03:07;25.00;;;20.73;;
11121;SDS011;5615;49.304;10.576;2023-03-01T10:05:44;25.10;;;21.30;;
11121;SDS011;5615;49.304;10.576;2023-03-01T10:08:29;24.40;;;19.40;;
11121;SDS011;5615;49.304;10.576;2023-03-01T10:11:01;26.20;;;21.03;;
11121;SDS011;5615;49.304;10.576;2023-03-01T10:13:31;24.13;;;21.15;;
11121;SDS011;5615;49.304;10.576;2023-03-01T10:16:05;23.15;;;20.48;;
11121;SDS011;5615;49.304;10.576;2023-03-01T10:18:37;24.02;;;21.42;;
11121;SDS011;5615;49.304;10.576;2023-03-01T10:21:09;25.42;;;21.58;;
11121;SDS011;5615;49.304;10.576;2023-03-01T10:23:40;30.40;;;20.65;;
11121;SDS011;5615;49.304;10.576;2023-03-01T10:26:10;25.45;;;21.15;;
11121;SDS011;5615;49.304;10.576;2023-03-01T10:28:48;24.77;;;20.50;;
11121;SDS011;5615;49.304;10.576;2023-03-01T10:31:23;22.45;;;20.10;;
11121;SDS011;5615;49.304;10.576;2023-03-01T10:33:54;24.95;;;19.98;;
11121;SDS011;5615;49.304;10.576;2023-03-01T10:36:23;22.92;;;20.50;;
11121;SDS011;5615;49.304;10.576;2023-03-01T10:38:51;22.90;;;20.35;;
11121;SDS011;5615;49.304;10.576;2023-03-01T10:41:19;21.58;;;19.25;;
11121;SDS011;5615;49.304;10.576;2023-03-01T10:43:49;24.17;;;20.13;;
11121;SDS011;5615;49.304;10.576;2023-03-01T10:46:23;22.50;;;18.80;;
11121;SDS011;5615;49.304;10.576;2023-03-01T10:49:07;22.25;;;19.95;;
11121;SDS011;5615;49.304;10.576;2023-03-01T10:51:43;21.83;;;19.58;;
11121;SDS011;5615;49.304;10.576;2023-03-01T10:54:15;24.95;;;20.38;;
11121;SDS011;5615;49.304;10.576;2023-03-01T10:56:48;24.10;;;19.73;;
11121;SDS011;5615;49.304;10.576;2023-03-01T10:59:22;21.92;;;19.58;;
11121;SDS011;5615;49.304;10.576;2023-03-01T11:02:02;21.63;;;19.42;;
11121;SDS011;5615;49.304;10.576;2023-03-01T11:04:38;21.05;;;18.90;;
11121;SDS011;5615;49.304;10.576;2023-03-01T11:07:08;24.58;;;19.58;;
11121;SDS011;5615;49.304;10.576;2023-03-01T11:09:35;21.45;;;19.35;;
11121;SDS011;5615;49.304;10.576;2023-03-01T11:12:03;25.77;;;19.65;;
11121;SDS011;5615;49.304;10.576;2023-03-01T11:14:39;21.08;;;18.98;;
11121;SDS011;5615;49.304;10.576;2023-03-01T11:17:13;22.55;;;20.33;;
11121;SDS011;5615;49.304;10.576;2023-03-01T11:19:44;22.48;;;19.92;;
11121;SDS011;5615;49.304;10.576;2023-03-01T11:22:27;22.60;;;20.30;;
11121;SDS011;5615;49.304;10.576;2023-03-01T11:24:56;22.00;;;19.65;;
11121;SDS011;5615;49.304;10.576;2023-03-01T11:27:24;22.20;;;19.77;;
11121;SDS011;5615;49.304;10.576;2023-03-01T11:29:52;22.00;;;19.70;;
11121;SDS011;5615;49.304;10.576;2023-03-01T11:32:24;21.73;;;19.42;;
11121;SDS011;5615;49.304;10.576;2023-03-01T11:34:55;22.02;;;19.83;;
11121;SDS011;5615;49.304;10.576;2023-03-01T11:37:28;23.10;;;20.35;;
11121;SDS011;5615;49.304;10.576;2023-03-01T11:40:03;22.13;;;19.73;;
11121;SDS011;5615;49.304;10.576;2023-03-01T11:42:42;21.27;;;19.08;;
11121;SDS011;5615;49.304;10.576;2023-03-01T11:45:14;20.73;;;18.58;;
11121;SDS011;5615;49.304;10.576;2023-03-01T11:47:48;21.20;;;19.17;;
11121;SDS011;5615;49.304;10.576;2023-03-01T11:50:29;20.67;;;18.63;;
11121;SDS011;5615;49.304;10.576;2023-03-01T11:53:09;20.15;;;18.15;;
11121;SDS011;5615;49.304;10.576;2023-03-01T11:55:57;20.73;;;18.65;;
11121;SDS011;5615;49.304;10.576;2023-03-01T11:58:34;22.27;;;19.17;;
11121;SDS011;5615;49.304;10.576;2023-03-01T12:01:09;21.95;;;18.48;;
11121;SDS011;5615;49.304;10.576;2023-03-01T12:03:54;20.58;;;18.67;;
11121;SDS011;5615;49.304;10.576;2023-03-01T12:06:39;20.17;;;18.10;;
11121;SDS011;5615;49.304;10.576;2023-03-01T12:09:20;22.77;;;18.65;;
11121;SDS011;5615;49.304;10.576;2023-03-01T12:12:01;27.33;;;18.48;;
11121;SDS011;5615;49.304;10.576;2023-03-01T12:14:53;19.33;;;17.35;;
11121;SDS011;5615;49.304;10.576;2023-03-01T12:17:37;19.50;;;17.60;;
11121;SDS011;5615;49.304;10.576;2023-03-01T12:20:19;19.45;;;17.30;;
11121;SDS011;5615;49.304;10.576;2023-03-01T12:22:58;19.80;;;17.90;;
11121;SDS011;5615;49.304;10.576;2023-03-01T12:25:41;20.70;;;18.05;;
11121;SDS011;5615;49.304;10.576;2023-03-01T12:28:24;18.98;;;17.02;;
11121;SDS011;5615;49.304;10.576;2023-03-01T12:31:08;19.50;;;17.35;;
11121;SDS011;5615;49.304;10.576;2023-03-01T12:33:54;19.42;;;17.42;;
11121;SDS011;5615;49.304;10.576;2023-03-01T12:36:30;18.90;;;17.10;;
11121;SDS011;5615;49.304;10.576;2023-03-01T12:39:09;20.23;;;18.13;;
11121;SDS011;5615;49.304;10.576;2023-03-01T12:41:51;18.65;;;16.85;;
11121;SDS011;5615;49.304;10.576;2023-03-01T12:44:27;19.05;;;17.10;;
11121;SDS011;5615;49.304;10.576;2023-03-01T12:47:07;18.38;;;16.58;;
11121;SDS011;5615;49.304;10.576;2023-03-01T12:49:47;18.60;;;16.70;;
11121;SDS011;5615;49.304;10.576;2023-03-01T12:52:19;17.85;;;16.15;;
11121;SDS011;5615;49.304;10.576;2023-03-01T12:54:54;18.63;;;15.88;;
11121;SDS011;5615;49.304;10.576;2023-03-01T12:57:26;18.08;;;16.20;;
11121;SDS011;5615;49.304;10.576;2023-03-01T13:00:03;17.38;;;15.57;;
11121;SDS011;5615;49.304;10.576;2023-03-01T13:02:45;17.67;;;15.98;;
11121;SDS011;5615;49.304;10.576;2023-03-01T13:05:19;18.08;;;16.27;;
11121;SDS011;5615;49.304;10.576;2023-03-01T13:07:53;17.33;;;15.50;;
11121;SDS011;5615;49.304;10.576;2023-03-01T13:10:26;18.73;;;16.77;;
11121;SDS011;5615;49.304;10.576;2023-03-01T13:13:10;17.98;;;16.27;;
11121;SDS011;5615;49.304;10.576;2023-03-01T13:15:39;16.75;;;15.05;;
11121;SDS011;5615;49.304;10.576;2023-03-01T13:20:55;17.42;;;15.90;;
11121;SDS011;5615;49.304;10.576;2023-03-01T13:23:24;17.90;;;16.27;;
11121;SDS011;5615;49.304;10.576;2023-03-01T13:26:03;18.05;;;16.45;;
11121;SDS011;5615;49.304;10.576;2023-03-01T13:37:25;16.90;;;15.27;;
11121;SDS011;5615;49.304;10.576;2023-03-01T13:39:54;17.73;;;15.90;;
11121;SDS011;5615;49.304;10.576;2023-03-01T13:42:30;18.17;;;16.45;;
11121;SDS011;5615;49.304;10.576;2023-03-01T13:45:05;17.17;;;14.45;;
11121;SDS011;5615;49.304;10.576;2023-03-01T13:47:48;15.88;;;14.48;;
11121;SDS011;5615;49.304;10.576;2023-03-01T13:50:20;17.77;;;15.57;;
11121;SDS011;5615;49.304;10.576;2023-03-01T13:52:50;19.33;;;15.50;;
11121;SDS011;5615;49.304;10.576;2023-03-01T13:55:23;16.33;;;14.73;;
11121;SDS011;5615;49.304;10.576;2023-03-01T13:57:54;16.85;;;15.10;;
11121;SDS011;5615;49.304;10.576;2023-03-01T14:00:30;15.25;;;13.75;;
11121;SDS011;5615;49.304;10.576;2023-03-01T14:05:57;16.95;;;14.82;;
11121;SDS011;5615;49.304;10.576;2023-03-01T14:08:29;17.33;;;15.63;;
11121;SDS011;5615;49.304;10.576;2023-03-01T14:11:00;16.92;;;15.15;;
11121;SDS011;5615;49.304;10.576;2023-03-01T14:13:51;19.98;;;15.50;;
11121;SDS011;5615;49.304;10.576;2023-03-01T14:16:31;16.50;;;15.00;;
11121;SDS011;5615;49.304;10.576;2023-03-01T14:19:08;17.20;;;15.40;;
11121;SDS011;5615;49.304;10.576;2023-03-01T14:21:41;16.23;;;14.68;;
11121;SDS011;5615;49.304;10.576;2023-03-01T14:24:15;15.68;;;14.07;;
11121;SDS011;5615;49.304;10.576;2023-03-01T14:26:43;16.05;;;14.55;;
11121;SDS011;5615;49.304;10.576;2023-03-01T14:29:22;18.85;;;14.95;;
11121;SDS011;5615;49.304;10.576;2023-03-01T14:31:51;16.27;;;14.40;;
11121;SDS011;5615;49.304;10.576;2023-03-01T14:34:19;20.00;;;15.77;;
11121;SDS011;5615;49.304;10.576;2023-03-01T14:36:46;16.83;;;15.20;;
11121;SDS011;5615;49.304;10.576;2023-03-01T14:39:16;15.82;;;14.18;;
11121;SDS011;5615;49.304;10.576;2023-03-01T14:41:45;17.75;;;15.15;;
11121;SDS011;5615;49.304;10.576;2023-03-01T14:44:12;16.25;;;14.65;;
11121;SDS011;5615;49.304;10.576;2023-03-01T14:46:45;16.52;;;14.90;;
11121;SDS011;5615;49.304;10.576;2023-03-01T14:49:14;16.65;;;14.95;;
11121;SDS011;5615;49.304;10.576;2023-03-01T14:51:46;16.35;;;14.68;;
11121;SDS011;5615;49.304;10.576;2023-03-01T14:54:20;16.45;;;14.85;;